createdAt,value
2019-02-24T00:00:41.082Z,82.79
2019-02-24T00:01:41.056Z,82.70
2019-02-24T00:02:41.030Z,82.42
2019-02-24T00:03:41.009Z,82.42
2019-02-24T00:04:40.979Z,82.51
2019-02-24T00:05:40.958Z,82.42
2019-02-24T00:06:40.930Z,82.79
2019-02-24T00:07:40.912Z,82.70
2019-02-24T00:08:40.886Z,82.42
2019-02-24T00:09:40.855Z,81.18
2019-02-24T00:10:40.837Z,81.66
2019-02-24T00:11:40.802Z,81.37
2019-02-24T00:12:40.780Z,82.70
2019-02-24T00:13:40.756Z,83.08
2019-02-24T00:14:40.726Z,83.46
2019-02-24T00:15:40.700Z,84.59
2019-02-24T00:16:40.726Z,85.07
2019-02-24T00:17:40.658Z,84.88
2019-02-24T00:18:40.627Z,85.64
2019-02-24T00:19:40.605Z,85.83
2019-02-24T00:20:40.576Z,85.36
2019-02-24T00:21:40.561Z,85.55
2019-02-24T00:22:40.525Z,85.36
2019-02-24T00:23:40.498Z,84.88
2019-02-24T00:24:40.472Z,85.07
2019-02-24T00:25:40.467Z,85.07
2019-02-24T00:26:40.445Z,85.07
2019-02-24T00:27:40.405Z,85.07
2019-02-24T00:28:40.372Z,85.55
2019-02-24T00:29:40.348Z,85.74
2019-02-24T00:30:40.325Z,85.93
2019-02-24T00:31:40.296Z,86.59
2019-02-24T00:32:40.277Z,86.59
2019-02-24T00:33:40.247Z,86.40
2019-02-24T00:34:40.220Z,86.68
2019-02-24T00:35:40.194Z,87.45
2019-02-24T00:36:40.165Z,87.54
2019-02-24T00:37:40.141Z,87.35
2019-02-24T00:38:40.115Z,87.63
2019-02-24T00:39:40.090Z,87.82
2019-02-24T00:40:40.075Z,87.82
2019-02-24T00:41:40.041Z,87.59
2019-02-24T00:42:40.013Z,87.82
2019-02-24T00:43:39.996Z,88.01
2019-02-24T00:44:39.963Z,87.97
2019-02-24T00:45:39.951Z,88.16
2019-02-24T00:46:39.911Z,88.25
2019-02-24T00:47:39.891Z,88.35
2019-02-24T00:48:39.859Z,88.54
2019-02-24T00:49:39.926Z,88.73
2019-02-24T00:50:39.812Z,88.35
2019-02-24T00:51:39.782Z,88.44
2019-02-24T00:52:39.756Z,88.73
2019-02-24T00:53:39.741Z,88.73
2019-02-24T00:54:39.708Z,88.35
2019-02-24T00:55:39.682Z,88.35
2019-02-24T00:56:39.665Z,87.59
2019-02-24T00:57:39.633Z,88.35
2019-02-24T00:58:39.604Z,88.54
2019-02-24T00:59:39.577Z,88.63
2019-02-24T01:00:39.565Z,89.29
2019-02-24T01:01:39.535Z,88.25
2019-02-24T01:02:39.504Z,88.54
2019-02-24T01:03:39.476Z,88.16
2019-02-24T01:04:39.450Z,88.77
2019-02-24T01:05:39.423Z,89.29
2019-02-24T01:06:39.402Z,88.92
2019-02-24T01:07:39.379Z,88.54
2019-02-24T01:08:39.346Z,89.29
2019-02-24T01:09:39.320Z,89.29
2019-02-24T01:10:39.304Z,89.20
2019-02-24T01:11:39.273Z,89.29
2019-02-24T01:12:39.244Z,89.01
2019-02-24T01:13:39.238Z,89.20
2019-02-24T01:14:39.197Z,89.67
2019-02-24T01:15:39.173Z,89.39
2019-02-24T01:16:39.142Z,89.58
2019-02-24T01:17:39.267Z,89.58
2019-02-24T01:18:39.091Z,89.67
2019-02-24T01:19:39.069Z,90.43
2019-02-24T01:20:39.042Z,91.09
2019-02-24T01:21:39.016Z,91.76
2019-02-24T01:22:39.001Z,91.85
2019-02-24T01:23:38.964Z,92.14
2019-02-24T01:24:38.937Z,92.14
2019-02-24T01:25:38.910Z,92.23
2019-02-24T01:26:38.895Z,91.76
2019-02-24T01:27:38.885Z,91.76
2019-02-24T01:28:38.849Z,91.19
2019-02-24T01:29:38.805Z,91.38
2019-02-24T01:30:38.790Z,91.38
2019-02-24T01:31:38.763Z,91.38
2019-02-24T01:32:38.737Z,91.76
2019-02-24T01:33:38.704Z,92.04
2019-02-24T01:34:38.693Z,91.85
2019-02-24T01:35:38.650Z,92.04
2019-02-24T01:36:38.624Z,91.90
2019-02-24T01:37:38.599Z,91.71
2019-02-24T01:38:38.578Z,91.71
2019-02-24T01:39:38.554Z,92.47
2019-02-24T01:40:38.523Z,91.76
2019-02-24T01:41:38.493Z,91.76
2019-02-24T01:42:38.469Z,92.42
2019-02-24T01:43:38.441Z,92.33
2019-02-24T01:44:38.416Z,92.19
2019-02-24T01:45:38.393Z,92.33
2019-02-24T01:46:39.174Z,92.28
2019-02-24T01:47:38.341Z,92.42
2019-02-24T01:48:38.320Z,92.23
2019-02-24T01:49:38.296Z,91.76
2019-02-24T01:50:38.265Z,91.76
2019-02-24T01:51:38.247Z,91.57
2019-02-24T01:52:38.207Z,92.52
2019-02-24T01:53:38.191Z,92.33
2019-02-24T01:54:38.156Z,92.33
2019-02-24T01:55:38.144Z,92.04
2019-02-24T01:56:38.151Z,92.33
2019-02-24T01:57:38.082Z,92.80
2019-02-24T01:58:38.053Z,92.80
2019-02-24T01:59:38.027Z,92.52
2019-02-24T02:00:38.000Z,92.99
2019-02-24T02:01:37.977Z,93.23
2019-02-24T02:02:37.949Z,93.23
2019-02-24T02:03:37.925Z,93.32
2019-02-24T02:04:37.911Z,93.99
2019-02-24T02:05:37.870Z,93.42
2019-02-24T02:06:37.849Z,93.61
2019-02-24T02:07:37.815Z,93.99
2019-02-24T02:08:37.803Z,93.23
2019-02-24T02:09:37.771Z,93.23
2019-02-24T02:10:37.739Z,92.57
2019-02-24T02:11:37.715Z,92.76
2019-02-24T02:12:37.687Z,92.19
2019-02-24T02:13:37.662Z,92.38
2019-02-24T02:14:37.639Z,92.66
2019-02-24T02:15:37.617Z,91.81
2019-02-24T02:16:37.583Z,92.28
2019-02-24T02:17:37.564Z,92.38
2019-02-24T02:18:37.532Z,92.19
2019-02-24T02:19:37.503Z,92.19
2019-02-24T02:20:37.479Z,92.19
2019-02-24T02:21:37.453Z,92.38
2019-02-24T02:22:37.427Z,92.28
2019-02-24T02:23:37.399Z,92.57
2019-02-24T02:24:37.373Z,92.47
2019-02-24T02:25:37.347Z,92.38
2019-02-24T02:26:37.320Z,92.66
2019-02-24T02:27:37.302Z,92.94
2019-02-24T02:28:43.829Z,93.23
2019-02-24T02:29:37.244Z,92.94
2019-02-24T02:30:37.220Z,93.89
2019-02-24T02:31:37.191Z,93.89
2019-02-24T02:32:37.166Z,93.89
2019-02-24T02:33:37.137Z,94.27
2019-02-24T02:34:37.113Z,94.27
2019-02-24T02:35:37.086Z,94.37
2019-02-24T02:36:37.057Z,94.27
2019-02-24T02:37:37.045Z,93.70
2019-02-24T02:38:37.011Z,94.08
2019-02-24T02:39:36.981Z,93.51
2019-02-24T02:40:36.955Z,93.80
2019-02-24T02:41:38.805Z,94.18
2019-02-24T02:42:36.903Z,94.37
2019-02-24T02:43:36.877Z,94.65
2019-02-24T02:44:36.851Z,95.12
2019-02-24T02:45:36.830Z,95.03
2019-02-24T02:46:36.804Z,94.84
2019-02-24T02:47:36.769Z,95.12
2019-02-24T02:48:36.747Z,94.84
2019-02-24T02:49:36.719Z,95.31
2019-02-24T02:50:36.695Z,95.03
2019-02-24T02:51:36.668Z,95.31
2019-02-24T02:52:36.649Z,95.22
2019-02-24T02:53:36.618Z,94.74
2019-02-24T02:54:36.589Z,94.93
2019-02-24T02:55:36.558Z,95.31
2019-02-24T02:56:36.534Z,95.12
2019-02-24T02:57:36.521Z,94.93
2019-02-24T02:58:36.482Z,95.12
2019-02-24T02:59:36.453Z,94.84
2019-02-24T03:00:36.429Z,94.65
2019-02-24T03:01:36.406Z,94.84
2019-02-24T03:02:36.379Z,95.03
2019-02-24T03:03:36.351Z,94.46
2019-02-24T03:04:36.323Z,94.37
2019-02-24T03:05:36.298Z,94.08
2019-02-24T03:06:36.270Z,94.18
2019-02-24T03:07:36.259Z,94.18
2019-02-24T03:08:36.225Z,94.27
2019-02-24T03:09:36.190Z,94.46
2019-02-24T03:10:36.165Z,94.74
2019-02-24T03:11:36.137Z,95.12
2019-02-24T03:12:36.113Z,94.84
2019-02-24T03:13:36.085Z,95.03
2019-02-24T03:14:36.060Z,94.84
2019-02-24T03:15:36.035Z,95.31
2019-02-24T03:16:36.006Z,95.69
2019-02-24T03:17:35.980Z,95.31
2019-02-24T03:18:35.963Z,96.07
2019-02-24T03:19:35.928Z,95.60
2019-02-24T03:20:35.900Z,95.79
2019-02-24T03:21:35.873Z,95.50
2019-02-24T03:22:35.847Z,95.79
2019-02-24T03:23:35.821Z,96.26
2019-02-24T03:24:35.801Z,95.69
2019-02-24T03:25:35.767Z,96.17
2019-02-24T03:26:35.743Z,95.69
2019-02-24T03:27:35.715Z,96.36
2019-02-24T03:28:35.707Z,96.45
2019-02-24T03:29:35.664Z,95.60
2019-02-24T03:30:35.640Z,96.55
2019-02-24T03:31:35.611Z,96.26
2019-02-24T03:32:35.596Z,96.92
2019-02-24T03:33:35.558Z,97.21
2019-02-24T03:34:35.535Z,96.92
2019-02-24T03:35:35.504Z,96.97
2019-02-24T03:36:35.478Z,96.78
2019-02-24T03:37:35.452Z,96.83
2019-02-24T03:38:35.425Z,96.97
2019-02-24T03:39:35.397Z,97.25
2019-02-24T03:40:35.386Z,97.25
2019-02-24T03:41:35.346Z,97.16
2019-02-24T03:42:35.473Z,96.97
2019-02-24T03:43:35.293Z,95.74
2019-02-24T03:44:35.268Z,95.64
2019-02-24T03:45:35.240Z,95.93
2019-02-24T03:46:35.213Z,96.31
2019-02-24T03:47:35.185Z,96.31
2019-02-24T03:48:35.159Z,95.64
2019-02-24T03:49:35.140Z,96.02
2019-02-24T03:50:35.108Z,95.93
2019-02-24T03:51:35.091Z,95.83
2019-02-24T03:52:35.052Z,95.83
2019-02-24T03:53:35.077Z,96.12
2019-02-24T03:54:35.009Z,96.31
2019-02-24T03:55:34.974Z,95.45
2019-02-24T03:56:34.947Z,95.88
2019-02-24T03:57:34.923Z,95.50
2019-02-24T03:58:34.896Z,95.93
2019-02-24T03:59:34.872Z,96.31
2019-02-24T04:00:34.841Z,96.26
2019-02-24T04:01:34.816Z,96.17
2019-02-24T04:02:34.788Z,96.26
2019-02-24T04:03:34.761Z,96.55
2019-02-24T04:04:34.737Z,96.17
2019-02-24T04:05:34.708Z,96.45
2019-02-24T04:06:34.682Z,96.17
2019-02-24T04:07:34.655Z,96.45
2019-02-24T04:08:34.628Z,96.45
2019-02-24T04:09:34.605Z,96.78
2019-02-24T04:10:34.578Z,96.78
2019-02-24T04:11:34.549Z,96.92
2019-02-24T04:12:34.524Z,97.11
2019-02-24T04:13:34.508Z,97.40
2019-02-24T04:14:34.473Z,97.11
2019-02-24T04:15:34.444Z,97.97
2019-02-24T04:16:34.419Z,97.97
2019-02-24T04:17:34.393Z,97.21
2019-02-24T04:18:34.469Z,95.03
2019-02-24T04:19:34.338Z,94.27
2019-02-24T04:20:34.325Z,94.08
2019-02-24T04:21:34.286Z,93.70
2019-02-24T04:22:34.262Z,93.42
2019-02-24T04:23:34.238Z,93.32
2019-02-24T04:24:34.259Z,93.42
2019-02-24T04:25:34.182Z,93.80
2019-02-24T04:26:34.153Z,93.80
2019-02-24T04:27:34.128Z,94.46
2019-02-24T04:28:34.101Z,94.18
2019-02-24T04:29:34.080Z,93.84
2019-02-24T04:30:34.049Z,93.32
2019-02-24T04:31:34.022Z,93.89
2019-02-24T04:32:33.994Z,93.65
2019-02-24T04:33:33.968Z,94.23
2019-02-24T04:34:33.942Z,93.89
2019-02-24T04:35:33.915Z,93.75
2019-02-24T04:36:33.889Z,94.32
2019-02-24T04:37:33.862Z,95.07
2019-02-24T04:38:33.839Z,94.13
2019-02-24T04:39:33.808Z,93.99
2019-02-24T04:40:33.781Z,92.38
2019-02-24T04:41:33.756Z,92.57
2019-02-24T04:42:33.728Z,92.19
2019-02-24T04:43:33.701Z,91.71
2019-02-24T04:44:33.676Z,92.19
2019-02-24T04:45:33.656Z,92.19
2019-02-24T04:46:33.624Z,93.23
2019-02-24T04:47:33.595Z,94.18
2019-02-24T04:48:33.585Z,95.12
2019-02-24T04:49:33.541Z,95.31
2019-02-24T04:50:33.513Z,95.88
2019-02-24T04:51:33.487Z,96.36
2019-02-24T04:52:33.469Z,95.79
2019-02-24T04:53:33.434Z,94.84
2019-02-24T04:54:33.407Z,94.60
2019-02-24T04:55:33.383Z,94.32
2019-02-24T04:56:33.356Z,94.56
2019-02-24T04:57:33.329Z,94.46
2019-02-24T04:58:33.308Z,94.27
2019-02-24T04:59:35.208Z,94.27
2019-02-24T05:00:33.260Z,94.18
2019-02-24T05:01:33.221Z,93.89
2019-02-24T05:02:33.195Z,94.04
2019-02-24T05:03:33.177Z,94.79
2019-02-24T05:04:33.142Z,95.55
2019-02-24T05:05:33.115Z,97.06
2019-02-24T05:06:33.087Z,96.88
2019-02-24T05:07:33.066Z,97.16
2019-02-24T05:08:33.040Z,96.88
2019-02-24T05:09:33.010Z,97.92
2019-02-24T05:10:32.985Z,97.63
2019-02-24T05:11:32.963Z,97.63
2019-02-24T05:12:32.928Z,97.25
2019-02-24T05:13:32.902Z,97.73
2019-02-24T05:14:32.874Z,97.54
2019-02-24T05:15:32.847Z,97.73
2019-02-24T05:16:32.828Z,97.73
2019-02-24T05:17:32.796Z,97.82
2019-02-24T05:18:32.768Z,98.20
2019-02-24T05:19:32.742Z,98.01
2019-02-24T05:20:32.715Z,96.97
2019-02-24T05:21:32.695Z,95.88
2019-02-24T05:22:32.669Z,96.69
2019-02-24T05:23:32.634Z,97.68
2019-02-24T05:24:32.623Z,97.78
2019-02-24T05:25:32.582Z,97.40
2019-02-24T05:26:32.554Z,97.92
2019-02-24T05:27:32.529Z,97.68
2019-02-24T05:28:32.501Z,97.54
2019-02-24T05:29:32.479Z,97.82
2019-02-24T05:30:32.449Z,97.63
2019-02-24T05:31:32.420Z,97.63
2019-02-24T05:32:32.403Z,97.82
2019-02-24T05:33:32.367Z,97.63
2019-02-24T05:34:32.341Z,97.63
2019-02-24T05:35:32.313Z,98.01
2019-02-24T05:36:32.301Z,97.44
2019-02-24T05:37:32.275Z,97.73
2019-02-24T05:38:32.236Z,98.49
2019-02-24T05:39:32.411Z,98.11
2019-02-24T05:40:32.190Z,97.92
2019-02-24T05:41:32.160Z,98.11
2019-02-24T05:42:32.281Z,98.58
2019-02-24T05:43:32.125Z,98.58
2019-02-24T05:44:32.076Z,98.39
2019-02-24T05:45:32.049Z,99.15
2019-02-24T05:46:32.025Z,99.15
2019-02-24T05:47:31.993Z,99.52
2019-02-24T05:48:33.696Z,99.90
2019-02-24T05:49:31.946Z,99.71
2019-02-24T05:50:31.913Z,99.81
2019-02-24T05:51:31.888Z,99.99
2019-02-24T05:52:31.860Z,99.99
2019-02-24T05:53:31.832Z,99.99
2019-02-24T05:54:31.817Z,99.99
2019-02-24T05:55:31.778Z,99.99
2019-02-24T05:56:31.760Z,99.99
2019-02-24T05:57:31.723Z,99.99
2019-02-24T05:58:31.717Z,99.81
2019-02-24T05:59:31.668Z,99.99
2019-02-24T06:00:31.642Z,99.99
2019-02-24T06:01:31.622Z,99.99
2019-02-24T06:02:31.588Z,99.99
2019-02-24T06:03:31.570Z,99.99
2019-02-24T06:04:31.541Z,99.99
2019-02-24T06:05:31.507Z,99.99
2019-02-24T06:06:31.480Z,99.99
2019-02-24T06:07:33.201Z,99.43
2019-02-24T06:08:31.432Z,98.86
2019-02-24T06:09:31.398Z,99.52
2019-02-24T06:10:31.377Z,99.99
2019-02-24T06:11:31.344Z,99.99
2019-02-24T06:12:31.406Z,99.99
2019-02-24T06:13:31.291Z,99.99
2019-02-24T06:14:31.265Z,99.99
2019-02-24T06:15:31.242Z,99.99
2019-02-24T06:16:31.210Z,99.99
2019-02-24T06:17:31.190Z,99.62
2019-02-24T06:18:31.156Z,99.05
2019-02-24T06:19:31.129Z,98.20
2019-02-24T06:20:31.100Z,97.35
2019-02-24T06:21:31.075Z,96.12
2019-02-24T06:22:31.052Z,97.25
2019-02-24T06:23:31.020Z,96.97
2019-02-24T06:24:30.997Z,96.78
2019-02-24T06:25:30.967Z,95.83
2019-02-24T06:26:30.941Z,94.51
2019-02-24T06:27:30.913Z,94.42
2019-02-24T06:28:30.887Z,94.04
2019-02-24T06:29:30.865Z,93.46
2019-02-24T06:30:30.834Z,92.99
2019-02-24T06:31:30.805Z,93.08
2019-02-24T06:32:30.778Z,93.37
2019-02-24T06:33:30.764Z,93.84
2019-02-24T06:34:30.726Z,93.46
2019-02-24T06:35:30.703Z,92.99
2019-02-24T06:36:30.671Z,93.18
2019-02-24T06:37:30.649Z,93.08
2019-02-24T06:38:30.616Z,94.60
2019-02-24T06:39:30.590Z,95.07
2019-02-24T06:40:30.561Z,94.23
2019-02-24T06:41:30.540Z,94.04
2019-02-24T06:42:30.513Z,93.18
2019-02-24T06:43:30.480Z,93.37
2019-02-24T06:44:30.456Z,94.04
2019-02-24T06:45:30.427Z,93.56
2019-02-24T06:46:30.401Z,93.84
2019-02-24T06:47:30.372Z,94.60
2019-02-24T06:48:30.348Z,94.23
2019-02-24T06:49:30.319Z,94.51
2019-02-24T06:50:35.416Z,93.84
2019-02-24T06:51:30.273Z,93.37
2019-02-24T06:52:30.252Z,92.94
2019-02-24T06:53:30.212Z,92.61
2019-02-24T06:54:30.188Z,92.14
2019-02-24T06:55:30.157Z,92.66
2019-02-24T06:56:30.132Z,92.61
2019-02-24T06:57:30.104Z,92.43
2019-02-24T06:58:30.093Z,92.57
2019-02-24T06:59:30.049Z,92.66
2019-02-24T07:00:30.026Z,93.18
2019-02-24T07:01:29.996Z,93.04
2019-02-24T07:02:29.972Z,93.23
2019-02-24T07:03:29.942Z,92.85
2019-02-24T07:04:29.914Z,93.80
2019-02-24T07:05:29.898Z,94.27
2019-02-24T07:06:29.866Z,94.93
2019-02-24T07:07:29.835Z,94.84
2019-02-24T07:08:29.821Z,95.03
2019-02-24T07:09:29.781Z,94.56
2019-02-24T07:10:29.755Z,94.56
2019-02-24T07:11:29.729Z,94.18
2019-02-24T07:12:29.701Z,93.70
2019-02-24T07:13:29.673Z,93.80
2019-02-24T07:14:29.647Z,93.70
2019-02-24T07:15:29.626Z,93.70
2019-02-24T07:16:29.598Z,93.89
2019-02-24T07:17:29.565Z,93.61
2019-02-24T07:18:29.538Z,94.08
2019-02-24T07:19:29.511Z,94.65
2019-02-24T07:20:29.487Z,94.84
2019-02-24T07:21:29.468Z,95.22
2019-02-24T07:22:29.433Z,95.12
2019-02-24T07:23:29.406Z,94.08
2019-02-24T07:24:29.393Z,94.08
2019-02-24T07:25:29.355Z,93.80
2019-02-24T07:26:29.327Z,93.89
2019-02-24T07:27:29.298Z,93.89
2019-02-24T07:28:29.269Z,93.89
2019-02-24T07:29:29.245Z,93.89
2019-02-24T07:30:29.219Z,94.18
2019-02-24T07:31:29.190Z,94.08
2019-02-24T07:32:29.163Z,94.65
2019-02-24T07:33:29.146Z,94.37
2019-02-24T07:34:29.171Z,94.65
2019-02-24T07:35:29.085Z,94.93
2019-02-24T07:36:29.066Z,95.22
2019-02-24T07:37:29.036Z,94.74
2019-02-24T07:38:29.009Z,95.12
2019-02-24T07:39:28.978Z,94.37
2019-02-24T07:40:28.950Z,94.56
2019-02-24T07:41:28.934Z,94.27
2019-02-24T07:42:28.899Z,93.89
2019-02-24T07:43:28.871Z,93.89
2019-02-24T07:44:28.845Z,93.70
2019-02-24T07:45:28.928Z,93.42
2019-02-24T07:46:28.791Z,93.13
2019-02-24T07:47:28.773Z,92.94
2019-02-24T07:48:28.788Z,92.19
2019-02-24T07:49:28.712Z,92.38
2019-02-24T07:50:28.690Z,92.28
2019-02-24T07:51:28.662Z,92.76
2019-02-24T07:52:28.630Z,92.28
2019-02-24T07:53:28.612Z,92.28
2019-02-24T07:54:28.579Z,91.14
2019-02-24T07:55:28.553Z,91.33
2019-02-24T07:56:28.533Z,91.24
2019-02-24T07:57:28.500Z,90.48
2019-02-24T07:58:28.474Z,89.82
2019-02-24T07:59:28.449Z,90.48
2019-02-24T08:00:32.217Z,90.67
2019-02-24T08:01:28.396Z,89.58
2019-02-24T08:02:28.368Z,89.77
2019-02-24T08:03:28.340Z,90.15
2019-02-24T08:04:28.323Z,89.48
2019-02-24T08:05:28.296Z,88.25
2019-02-24T08:06:28.263Z,88.44
2019-02-24T08:07:28.236Z,88.54
2019-02-24T08:08:28.209Z,89.11
2019-02-24T08:09:28.186Z,89.29
2019-02-24T08:10:28.165Z,89.29
2019-02-24T08:11:28.144Z,88.82
2019-02-24T08:12:28.106Z,88.63
2019-02-24T08:13:28.077Z,88.35
2019-02-24T08:14:28.049Z,88.44
2019-02-24T08:15:28.024Z,88.44
2019-02-24T08:16:27.999Z,88.16
2019-02-24T08:17:27.972Z,87.77
2019-02-24T08:18:27.946Z,85.88
2019-02-24T08:19:27.925Z,85.78
2019-02-24T08:20:27.911Z,84.55
2019-02-24T08:21:27.872Z,83.08
2019-02-24T08:22:27.857Z,82.32
2019-02-24T08:23:27.823Z,81.66
2019-02-24T08:24:29.193Z,81.18
2019-02-24T08:25:27.761Z,80.99
2019-02-24T08:26:27.741Z,80.33
2019-02-24T08:27:27.730Z,79.19
2019-02-24T08:28:27.698Z,78.91
2019-02-24T08:29:27.659Z,77.96
2019-02-24T08:30:27.633Z,77.14
2019-02-24T08:31:27.606Z,76.48
2019-02-24T08:32:27.580Z,75.15
2019-02-24T08:33:27.564Z,74.58
2019-02-24T08:34:27.542Z,74.01
2019-02-24T08:35:27.515Z,73.82
2019-02-24T08:36:27.476Z,73.63
2019-02-24T08:37:27.449Z,73.16
2019-02-24T08:38:27.425Z,73.07
2019-02-24T08:39:27.398Z,73.16
2019-02-24T08:40:27.391Z,73.72
2019-02-24T08:41:27.355Z,73.72
2019-02-24T08:42:27.321Z,73.63
2019-02-24T08:43:27.298Z,72.02
2019-02-24T08:44:27.271Z,72.40
2019-02-24T08:45:27.242Z,72.49
2019-02-24T08:46:27.218Z,72.49
2019-02-24T08:47:27.206Z,71.64
2019-02-24T08:48:27.168Z,70.44
2019-02-24T08:49:27.140Z,70.25
2019-02-24T08:50:27.118Z,69.49
2019-02-24T08:51:27.115Z,68.92
2019-02-24T08:52:27.075Z,69.02
2019-02-24T08:53:27.065Z,68.73
2019-02-24T08:54:27.017Z,68.35
2019-02-24T08:55:26.987Z,68.54
2019-02-24T08:56:26.969Z,68.73
2019-02-24T08:57:26.937Z,68.16
2019-02-24T08:58:26.913Z,67.88
2019-02-24T08:59:26.887Z,67.40
2019-02-24T09:00:26.859Z,67.02
2019-02-24T09:01:26.836Z,66.74
2019-02-24T09:02:26.809Z,66.83
2019-02-24T09:03:26.790Z,66.08
2019-02-24T09:04:26.777Z,65.16
2019-02-24T09:05:26.734Z,65.06
2019-02-24T09:06:26.722Z,63.83
2019-02-24T09:07:26.681Z,64.49
2019-02-24T09:08:26.656Z,64.78
2019-02-24T09:09:26.642Z,63.57
2019-02-24T09:10:26.606Z,62.91
2019-02-24T09:11:26.581Z,61.04
2019-02-24T09:12:26.557Z,59.36
2019-02-24T09:13:26.532Z,58.62
2019-02-24T09:14:26.519Z,58.08
2019-02-24T09:15:26.485Z,55.70
2019-02-24T09:16:26.461Z,55.07
2019-02-24T09:17:26.445Z,53.85
2019-02-24T09:18:26.416Z,52.07
2019-02-24T09:19:26.391Z,50.47
2019-02-24T09:20:26.372Z,48.85
2019-02-24T09:21:26.350Z,47.16
2019-02-24T09:22:26.330Z,46.42
2019-02-24T09:23:26.303Z,45.65
2019-02-24T09:24:26.283Z,45.10
2019-02-24T09:25:26.266Z,44.24
2019-02-24T09:26:26.555Z,44.02
2019-02-24T09:27:26.421Z,44.15
2019-02-24T09:28:26.201Z,44.15
2019-02-24T09:29:26.177Z,43.59
2019-02-24T09:30:26.172Z,43.80
2019-02-24T09:31:26.163Z,42.27
2019-02-24T09:32:26.117Z,42.08
2019-02-24T09:33:26.108Z,42.47
2019-02-24T09:34:26.080Z,42.37
2019-02-24T09:35:26.062Z,42.16
2019-02-24T09:36:26.047Z,41.49
2019-02-24T09:37:26.039Z,41.41
2019-02-24T09:38:26.005Z,41.34
2019-02-24T09:39:25.986Z,41.15
2019-02-24T09:40:25.968Z,39.64
2019-02-24T09:41:25.958Z,39.75
2019-02-24T09:42:25.933Z,39.18
2019-02-24T09:43:25.924Z,38.89
2019-02-24T09:44:25.907Z,38.62
2019-02-24T09:45:25.886Z,37.16
2019-02-24T09:46:25.864Z,36.38
2019-02-24T09:47:25.852Z,36.98
2019-02-24T09:48:25.838Z,37.26
2019-02-24T09:49:25.814Z,37.65
2019-02-24T09:50:25.800Z,37.84
2019-02-24T09:51:25.780Z,36.79
2019-02-24T09:52:25.776Z,36.69
2019-02-24T09:53:25.747Z,36.11
2019-02-24T09:54:25.736Z,36.88
2019-02-24T09:55:25.717Z,36.69
2019-02-24T09:56:25.702Z,36.42
2019-02-24T09:57:25.688Z,34.66
2019-02-24T09:58:25.677Z,34.87
2019-02-24T09:59:25.656Z,35.35
2019-02-24T10:00:25.653Z,35.17
2019-02-24T10:01:25.625Z,34.71
2019-02-24T10:02:25.608Z,33.94
2019-02-24T10:03:25.744Z,33.39
2019-02-24T10:04:25.586Z,32.23
2019-02-24T10:05:25.567Z,32.14
2019-02-24T10:06:25.552Z,32.42
2019-02-24T10:07:25.535Z,32.21
2019-02-24T10:08:25.529Z,33.45
2019-02-24T10:09:25.509Z,33.16
2019-02-24T10:10:25.490Z,31.35
2019-02-24T10:11:25.477Z,31.16
2019-02-24T10:12:25.458Z,30.20
2019-02-24T10:13:25.452Z,30.40
2019-02-24T10:14:25.468Z,30.87
2019-02-24T10:15:25.425Z,30.32
2019-02-24T10:16:25.400Z,30.04
2019-02-24T10:17:25.392Z,29.10
2019-02-24T10:18:25.377Z,28.33
2019-02-24T10:19:25.355Z,28.14
2019-02-24T10:20:25.338Z,27.75
2019-02-24T10:21:25.335Z,28.15
2019-02-24T10:22:25.312Z,27.76
2019-02-24T10:23:27.078Z,27.84
2019-02-24T10:24:25.279Z,27.67
2019-02-24T10:25:25.265Z,27.84
2019-02-24T10:26:25.320Z,27.45
2019-02-24T10:27:25.234Z,28.22
2019-02-24T10:28:25.225Z,28.97
2019-02-24T10:29:25.203Z,30.14
2019-02-24T10:30:25.199Z,29.86
2019-02-24T10:31:25.174Z,29.67
2019-02-24T10:32:25.163Z,29.11
2019-02-24T10:33:25.143Z,27.97
2019-02-24T10:34:25.143Z,27.11
2019-02-24T10:35:25.134Z,27.59
2019-02-24T10:36:25.101Z,26.51
2019-02-24T10:37:25.089Z,25.62
2019-02-24T10:38:25.072Z,26.19
2019-02-24T10:39:29.605Z,26.75
2019-02-24T10:40:25.059Z,26.67
2019-02-24T10:41:25.029Z,25.73
2019-02-24T10:42:25.031Z,23.52
2019-02-24T10:43:24.999Z,23.63
2019-02-24T10:44:24.998Z,24.50
2019-02-24T10:45:24.980Z,23.93
2019-02-24T10:46:24.958Z,23.74
2019-02-24T10:47:24.965Z,23.93
2019-02-24T10:48:24.930Z,24.80
2019-02-24T10:49:25.014Z,25.56
2019-02-24T10:50:24.913Z,25.38
2019-02-24T10:51:25.484Z,24.90
2019-02-24T10:52:24.882Z,25.47
2019-02-24T10:53:24.861Z,25.84
2019-02-24T10:54:24.853Z,25.74
2019-02-24T10:55:24.841Z,25.85
2019-02-24T10:56:24.819Z,25.47
2019-02-24T10:57:24.799Z,25.47
2019-02-24T10:58:24.793Z,24.33
2019-02-24T10:59:24.773Z,24.52
2019-02-24T11:00:24.782Z,23.75
2019-02-24T11:01:29.641Z,24.33
2019-02-24T11:02:24.785Z,24.54
2019-02-24T11:03:24.715Z,23.96
2019-02-24T11:04:24.710Z,24.23
2019-02-24T11:05:24.697Z,24.34
2019-02-24T11:06:24.675Z,25.02
2019-02-24T11:07:24.659Z,23.47
2019-02-24T11:08:24.652Z,23.86
2019-02-24T11:09:24.660Z,23.67
2019-02-24T11:10:24.618Z,23.47
2019-02-24T11:11:24.602Z,23.49
2019-02-24T11:12:24.588Z,23.50
2019-02-24T11:13:24.581Z,23.13
2019-02-24T11:14:24.565Z,21.20
2019-02-24T11:15:24.561Z,21.09
2019-02-24T11:16:24.532Z,21.09
2019-02-24T11:17:24.527Z,20.98
2019-02-24T11:18:24.531Z,22.05
2019-02-24T11:19:24.499Z,21.94
2019-02-24T11:20:24.481Z,21.94
2019-02-24T11:21:24.464Z,22.24
2019-02-24T11:22:24.458Z,21.66
2019-02-24T11:23:24.448Z,22.24
2019-02-24T11:24:24.436Z,22.14
2019-02-24T11:25:24.757Z,22.13
2019-02-24T11:26:24.401Z,22.90
2019-02-24T11:27:24.386Z,22.33
2019-02-24T11:28:24.373Z,22.05
2019-02-24T11:29:24.361Z,21.38
2019-02-24T11:30:24.341Z,21.08
2019-02-24T11:31:24.323Z,21.08
2019-02-24T11:32:24.322Z,21.28
2019-02-24T11:33:24.305Z,21.30
2019-02-24T11:34:24.332Z,21.01
2019-02-24T11:35:24.281Z,19.95
2019-02-24T11:36:24.260Z,19.87
2019-02-24T11:37:24.250Z,19.10
2019-02-24T11:38:24.238Z,18.52
2019-02-24T11:39:24.215Z,18.70
2019-02-24T11:40:24.206Z,19.18
2019-02-24T11:41:24.187Z,19.28
2019-02-24T11:42:24.173Z,19.00
2019-02-24T11:43:24.159Z,19.20
2019-02-24T11:44:24.152Z,18.98
2019-02-24T11:45:24.130Z,19.09
2019-02-24T11:46:24.116Z,18.80
2019-02-24T11:47:24.103Z,18.32
2019-02-24T11:48:24.115Z,18.51
2019-02-24T11:49:24.180Z,18.51
2019-02-24T11:50:24.070Z,18.22
2019-02-24T11:51:24.056Z,18.02
2019-02-24T11:52:24.032Z,18.10
2019-02-24T11:53:24.047Z,18.77
2019-02-24T11:54:24.006Z,18.96
2019-02-24T11:55:23.986Z,19.55
2019-02-24T11:56:24.073Z,19.36
2019-02-24T11:57:23.957Z,18.98
2019-02-24T11:58:23.944Z,18.70
2019-02-24T11:59:23.928Z,18.30
2019-02-24T12:00:23.916Z,18.49
2019-02-24T12:01:23.905Z,18.68
2019-02-24T12:02:23.893Z,18.86
2019-02-24T12:03:23.877Z,18.95
2019-02-24T12:04:23.853Z,19.15
2019-02-24T12:05:23.839Z,18.77
2019-02-24T12:06:23.825Z,18.96
2019-02-24T12:07:23.814Z,18.96
2019-02-24T12:08:23.815Z,18.48
2019-02-24T12:09:23.784Z,18.18
2019-02-24T12:10:23.764Z,17.99
2019-02-24T12:11:23.748Z,17.99
2019-02-24T12:12:23.732Z,17.61
2019-02-24T12:13:23.723Z,17.13
2019-02-24T12:14:23.709Z,17.03
2019-02-24T12:15:23.683Z,17.11
2019-02-24T12:16:23.669Z,17.60
2019-02-24T12:17:23.653Z,17.80
2019-02-24T12:18:23.649Z,18.18
2019-02-24T12:19:23.626Z,18.38
2019-02-24T12:20:23.614Z,18.19
2019-02-24T12:21:23.599Z,17.33
2019-02-24T12:22:23.573Z,16.36
2019-02-24T12:23:23.560Z,15.39
2019-02-24T12:24:23.542Z,16.26
2019-02-24T12:25:23.528Z,16.36
2019-02-24T12:26:23.511Z,16.36
2019-02-24T12:27:23.500Z,16.08
2019-02-24T12:28:23.487Z,15.30
2019-02-24T12:29:23.472Z,15.40
2019-02-24T12:30:23.448Z,16.17
2019-02-24T12:31:23.434Z,16.46
2019-02-24T12:32:23.441Z,17.62
2019-02-24T12:33:23.395Z,17.13
2019-02-24T12:34:23.387Z,16.75
2019-02-24T12:35:23.370Z,17.03
2019-02-24T12:36:23.362Z,18.18
2019-02-24T12:37:23.336Z,19.15
2019-02-24T12:38:23.313Z,19.43
2019-02-24T12:39:23.301Z,20.40
2019-02-24T12:40:23.289Z,20.40
2019-02-24T12:41:23.285Z,20.30
2019-02-24T12:42:23.255Z,20.60
2019-02-24T12:43:23.285Z,21.07
2019-02-24T12:44:23.213Z,21.25
2019-02-24T12:45:23.220Z,21.82
2019-02-24T12:46:23.194Z,22.77
2019-02-24T12:47:23.171Z,23.44
2019-02-24T12:48:23.155Z,23.13
2019-02-24T12:49:23.138Z,23.79
2019-02-24T12:50:23.114Z,23.88
2019-02-24T12:51:23.096Z,24.26
2019-02-24T12:52:23.078Z,25.12